createdAt,value
2023-03-19T00:01:26.898Z,18.13
2023-03-19T00:03:51.656Z,18.88
2023-03-19T00:06:16.496Z,20.50
2023-03-19T00:08:42.022Z,20.27
2023-03-19T00:11:13.476Z,21.45
2023-03-19T00:13:38.164Z,18.77
2023-03-19T00:16:02.639Z,19.42
2023-03-19T00:18:27.074Z,19.40
2023-03-19T00:20:52.987Z,20.00
2023-03-19T00:23:17.988Z,18.42
2023-03-19T00:25:42.371Z,18.65
2023-03-19T00:28:08.244Z,19.35
2023-03-19T00:30:32.719Z,21.73
2023-03-19T00:32:57.276Z,20.55
2023-03-19T00:35:21.975Z,21.20
2023-03-19T00:37:46.505Z,20.17
2023-03-19T00:40:12.355Z,19.55
2023-03-19T00:42:37.346Z,22.60
2023-03-19T00:45:03.792Z,20.70
2023-03-19T00:47:30.899Z,18.80
2023-03-19T00:49:55.802Z,21.27
2023-03-19T00:52:20.493Z,20.88
2023-03-19T00:54:45.020Z,21.90
2023-03-19T00:57:10.125Z,20.48
2023-03-19T00:59:34.568Z,19.90
2023-03-19T01:02:01.635Z,22.05
2023-03-19T01:04:26.245Z,21.73
2023-03-19T01:06:52.499Z,21.90
2023-03-19T01:09:17.361Z,23.52
2023-03-19T01:11:42.015Z,23.30
2023-03-19T01:14:06.888Z,24.60
2023-03-19T01:16:31.633Z,21.55
2023-03-19T01:18:58.551Z,22.38
2023-03-19T01:21:23.222Z,24.17
2023-03-19T01:23:48.319Z,23.50
2023-03-19T01:26:13.786Z,25.65
2023-03-19T01:28:38.693Z,24.88
2023-03-19T01:31:07.121Z,25.65
2023-03-19T01:33:31.762Z,29.50
2023-03-19T01:36:03.525Z,29.58
2023-03-19T01:38:35.919Z,27.90
2023-03-19T01:41:03.655Z,27.30
2023-03-19T01:43:30.806Z,25.95
2023-03-19T01:46:09.206Z,27.05
2023-03-19T01:48:55.109Z,27.83
2023-03-19T01:51:25.037Z,24.27
2023-03-19T01:54:21.658Z,25.17
2023-03-19T01:56:58.477Z,23.60
2023-03-19T01:59:50.289Z,23.48
2023-03-19T02:02:30.755Z,22.95
2023-03-19T02:05:02.113Z,24.63
2023-03-19T02:07:32.052Z,22.63
2023-03-19T02:09:56.693Z,21.35
2023-03-19T02:12:21.582Z,21.20
2023-03-19T02:14:46.176Z,20.55
2023-03-19T02:17:11.413Z,20.65
2023-03-19T02:19:47.168Z,20.20
2023-03-19T02:22:14.128Z,18.42
2023-03-19T02:24:46.576Z,18.27
2023-03-19T02:27:18.090Z,18.70
2023-03-19T02:29:45.586Z,19.27
2023-03-19T02:32:11.219Z,21.35
2023-03-19T02:34:39.217Z,20.60
2023-03-19T02:37:08.235Z,20.63
2023-03-19T02:39:39.448Z,24.65
2023-03-19T02:42:04.832Z,21.73
2023-03-19T02:44:30.859Z,24.25
2023-03-19T02:46:55.446Z,23.83
2023-03-19T02:49:20.353Z,23.88
2023-03-19T02:51:44.945Z,23.67
2023-03-19T02:54:09.821Z,23.83
2023-03-19T02:56:34.782Z,24.27
2023-03-19T02:58:59.232Z,23.65
2023-03-19T03:01:25.274Z,23.35
2023-03-19T03:03:49.840Z,25.17
2023-03-19T03:06:14.761Z,24.75
2023-03-19T03:08:39.304Z,24.35
2023-03-19T03:11:03.914Z,25.65
2023-03-19T03:13:29.285Z,31.60
2023-03-19T03:15:53.823Z,31.70
2023-03-19T03:18:19.908Z,30.17
2023-03-19T03:20:45.736Z,28.75
2023-03-19T03:23:11.493Z,28.23
2023-03-19T03:25:36.555Z,32.08
2023-03-19T03:28:01.086Z,33.20
2023-03-19T03:30:26.798Z,32.80
2023-03-19T03:32:52.061Z,29.35
2023-03-19T03:35:21.998Z,33.45
2023-03-19T03:40:11.912Z,25.15
2023-03-19T03:42:38.146Z,24.42
2023-03-19T03:45:05.776Z,24.48
2023-03-19T03:47:30.552Z,25.50
2023-03-19T03:49:55.772Z,21.02
2023-03-19T03:52:22.612Z,22.05
2023-03-19T03:54:47.092Z,21.73
2023-03-19T03:57:12.400Z,22.20
2023-03-19T03:59:37.248Z,22.58
2023-03-19T04:02:02.068Z,22.25
2023-03-19T04:04:26.852Z,23.17
2023-03-19T04:06:51.450Z,23.60
2023-03-19T04:09:37.711Z,22.27
2023-03-19T04:12:02.879Z,26.67
2023-03-19T04:14:27.941Z,27.83
2023-03-19T04:16:53.572Z,23.52
2023-03-19T04:19:21.481Z,25.10
2023-03-19T04:21:46.120Z,21.65
2023-03-19T04:24:11.510Z,25.30
2023-03-19T04:26:42.562Z,23.55
2023-03-19T04:29:08.538Z,24.73
2023-03-19T04:31:33.367Z,22.25
2023-03-19T04:33:58.534Z,23.17
2023-03-19T04:36:23.268Z,23.08
2023-03-19T04:38:47.953Z,23.45
2023-03-19T04:41:12.534Z,21.27
2023-03-19T04:43:44.628Z,21.60
2023-03-19T04:46:09.580Z,22.15
2023-03-19T04:48:35.928Z,21.83
2023-03-19T04:51:00.835Z,20.60
2023-03-19T04:53:25.836Z,19.95
2023-03-19T04:55:50.896Z,19.83
2023-03-19T04:58:17.640Z,20.73
2023-03-19T05:00:47.725Z,21.30
2023-03-19T05:03:17.226Z,21.45
2023-03-19T05:05:42.188Z,21.63
2023-03-19T05:08:07.472Z,19.80
2023-03-19T05:10:33.438Z,21.50
2023-03-19T05:12:58.021Z,22.23
2023-03-19T05:15:22.691Z,22.33
2023-03-19T05:18:06.425Z,21.48
2023-03-19T05:20:35.986Z,22.75
2023-03-19T05:23:04.537Z,20.92
2023-03-19T05:25:36.613Z,21.73
2023-03-19T05:28:04.517Z,21.70
2023-03-19T05:30:29.230Z,20.98
2023-03-19T05:33:06.738Z,22.67
2023-03-19T05:35:34.757Z,22.80
2023-03-19T05:38:01.661Z,22.20
2023-03-19T05:40:27.191Z,23.00
2023-03-19T05:42:52.969Z,23.38
2023-03-19T05:45:21.002Z,24.20
2023-03-19T05:47:52.865Z,23.42
2023-03-19T05:50:20.222Z,23.10
2023-03-19T05:53:07.952Z,24.75
2023-03-19T05:55:37.065Z,24.33
2023-03-19T05:58:04.521Z,24.30
2023-03-19T06:00:29.251Z,23.77
2023-03-19T06:02:54.969Z,24.95
2023-03-19T06:05:53.141Z,24.83
2023-03-19T06:08:37.865Z,25.83
2023-03-19T06:11:11.000Z,26.17
2023-03-19T06:13:36.062Z,27.20
2023-03-19T06:16:07.352Z,26.00
2023-03-19T06:18:40.502Z,26.13
2023-03-19T06:21:09.978Z,26.27
2023-03-19T06:23:34.918Z,27.90
2023-03-19T06:26:02.157Z,25.92
2023-03-19T06:28:31.949Z,26.77
2023-03-19T06:30:56.933Z,27.30
2023-03-19T06:33:39.628Z,27.00
2023-03-19T06:36:04.243Z,26.90
2023-03-19T06:38:32.013Z,28.65
2023-03-19T06:40:56.571Z,27.83
2023-03-19T06:43:21.070Z,25.08
2023-03-19T06:45:45.688Z,28.02
2023-03-19T06:48:10.178Z,27.58
2023-03-19T06:50:34.839Z,27.52
2023-03-19T06:52:59.742Z,26.73
2023-03-19T06:55:25.798Z,26.15
2023-03-19T06:57:51.432Z,26.13
2023-03-19T07:00:17.206Z,24.48
2023-03-19T07:02:41.823Z,23.42
2023-03-19T07:05:07.006Z,22.55
2023-03-19T07:07:31.700Z,25.33
2023-03-19T07:09:56.186Z,24.70
2023-03-19T07:12:22.016Z,25.08
2023-03-19T07:14:46.548Z,24.95
2023-03-19T07:17:11.121Z,23.13
2023-03-19T07:19:35.825Z,22.25
2023-03-19T07:22:00.377Z,21.73
2023-03-19T07:24:25.239Z,21.45
2023-03-19T07:26:52.013Z,24.30
2023-03-19T07:29:18.225Z,24.27
2023-03-19T07:31:43.007Z,25.65
2023-03-19T07:34:07.745Z,26.13
2023-03-19T07:36:32.228Z,26.60
2023-03-19T07:38:57.536Z,26.88
2023-03-19T07:41:22.139Z,28.15
2023-03-19T07:43:46.760Z,29.65
2023-03-19T07:46:12.830Z,27.92
2023-03-19T07:48:37.562Z,27.20
2023-03-19T07:51:02.873Z,28.70
2023-03-19T07:53:27.403Z,28.77
2023-03-19T07:55:52.242Z,29.83
2023-03-19T07:58:17.262Z,28.75
2023-03-19T08:00:41.767Z,30.20
2023-03-19T08:03:07.998Z,27.10
2023-03-19T08:05:32.655Z,27.20
2023-03-19T08:07:57.372Z,26.77
2023-03-19T08:10:22.088Z,28.20
2023-03-19T08:12:49.069Z,29.00
2023-03-19T08:15:14.079Z,28.58
2023-03-19T08:17:39.274Z,24.17
2023-03-19T08:20:06.336Z,22.77
2023-03-19T08:22:31.031Z,23.15
2023-03-19T08:24:55.673Z,23.65
2023-03-19T08:27:20.650Z,23.75
2023-03-19T08:29:45.783Z,24.50
2023-03-19T08:32:12.687Z,24.63
2023-03-19T08:34:37.181Z,22.80
2023-03-19T08:37:03.662Z,23.42
2023-03-19T08:39:28.731Z,21.90
2023-03-19T08:41:53.103Z,22.63
2023-03-19T08:44:17.433Z,24.52
2023-03-19T08:46:42.742Z,23.33
2023-03-19T08:49:07.193Z,23.08
2023-03-19T08:51:32.058Z,23.92
2023-03-19T08:53:57.935Z,23.58
2023-03-19T08:56:24.587Z,25.95
2023-03-19T08:58:49.135Z,25.75
2023-03-19T09:01:15.105Z,25.85
2023-03-19T09:03:40.167Z,23.85
2023-03-19T09:06:06.496Z,23.75
2023-03-19T09:08:37.903Z,21.27
2023-03-19T09:11:04.050Z,21.70
2023-03-19T09:13:28.768Z,21.95
2023-03-19T09:15:53.393Z,21.13
2023-03-19T09:18:18.008Z,22.05
2023-03-19T09:20:43.765Z,23.88
2023-03-19T09:23:08.258Z,24.90
2023-03-19T09:25:33.045Z,23.15
2023-03-19T09:27:59.135Z,22.80
2023-03-19T09:30:23.815Z,22.58
2023-03-19T09:32:48.205Z,21.65
2023-03-19T09:35:13.146Z,20.33
2023-03-19T09:37:37.754Z,19.75
2023-03-19T09:40:02.163Z,21.02
2023-03-19T09:42:46.393Z,22.25
2023-03-19T09:45:17.874Z,23.23
2023-03-19T09:47:43.727Z,24.90
2023-03-19T09:50:14.716Z,24.92
2023-03-19T09:52:52.891Z,21.23
2023-03-19T09:55:39.295Z,17.45
2023-03-19T09:58:15.818Z,20.52
2023-03-19T10:00:44.251Z,19.88
2023-03-19T10:03:25.524Z,21.15
2023-03-19T10:05:59.882Z,20.15
2023-03-19T10:08:45.836Z,22.08
2023-03-19T10:11:25.941Z,21.95
2023-03-19T10:14:03.893Z,20.50
2023-03-19T10:16:32.493Z,21.23
2023-03-19T10:19:00.916Z,21.80
2023-03-19T10:21:32.315Z,21.02
2023-03-19T10:24:01.936Z,22.45
2023-03-19T10:26:31.788Z,22.23
2023-03-19T10:31:34.692Z,22.70
2023-03-19T10:34:11.976Z,20.60
2023-03-19T10:36:38.036Z,20.15
2023-03-19T10:39:04.846Z,21.85
2023-03-19T10:41:39.531Z,19.77
2023-03-19T10:44:08.332Z,20.73
2023-03-19T10:46:44.351Z,20.85
2023-03-19T10:49:36.615Z,19.80
2023-03-19T10:52:01.565Z,18.92
2023-03-19T10:54:32.408Z,18.60
2023-03-19T10:57:04.566Z,18.05
2023-03-19T10:59:34.448Z,17.92
2023-03-19T11:02:12.451Z,15.50
2023-03-19T11:04:38.195Z,15.60
2023-03-19T11:07:10.573Z,14.55
2023-03-19T11:10:01.202Z,15.55
2023-03-19T11:12:34.056Z,15.20
2023-03-19T11:14:59.959Z,17.20
2023-03-19T11:17:38.033Z,17.83
2023-03-19T11:20:20.122Z,16.23
2023-03-19T11:22:46.179Z,14.85
2023-03-19T11:25:19.167Z,14.13
2023-03-19T11:27:45.768Z,13.57
2023-03-19T11:30:18.633Z,13.48
2023-03-19T11:33:09.986Z,13.88
2023-03-19T11:35:38.804Z,13.75
2023-03-19T11:38:05.157Z,12.23
2023-03-19T11:40:44.113Z,12.15
2023-03-19T11:43:32.596Z,12.27
2023-03-19T11:46:05.858Z,12.52
2023-03-19T11:48:47.862Z,12.40
2023-03-19T11:51:20.649Z,11.68
2023-03-19T11:54:00.562Z,11.73
2023-03-19T11:56:34.402Z,10.52
2023-03-19T11:59:33.480Z,8.88
2023-03-19T12:02:20.228Z,8.83
2023-03-19T12:05:00.938Z,8.07
2023-03-19T12:07:30.022Z,7.70
2023-03-19T12:10:05.790Z,9.00
2023-03-19T12:12:39.512Z,9.73
2023-03-19T12:15:14.192Z,8.93
2023-03-19T12:17:52.806Z,7.70
2023-03-19T12:20:36.289Z,8.60
2023-03-19T12:23:07.646Z,9.07
2023-03-19T12:25:43.614Z,9.27
2023-03-19T12:28:17.323Z,8.50
2023-03-19T12:30:46.199Z,9.57
2023-03-19T12:33:34.718Z,8.68
2023-03-19T12:36:03.222Z,9.13
2023-03-19T12:38:33.084Z,8.73
2023-03-19T12:43:29.780Z,9.65
2023-03-19T12:45:58.929Z,9.98
2023-03-19T12:48:29.617Z,9.00
2023-03-19T12:50:58.494Z,8.10
2023-03-19T12:53:35.711Z,7.60
2023-03-19T12:56:06.151Z,7.13
2023-03-19T12:58:45.097Z,8.15
2023-03-19T13:01:14.748Z,7.55
2023-03-19T13:03:46.898Z,7.22
2023-03-19T13:06:18.504Z,8.95
2023-03-19T13:08:49.303Z,8.75
2023-03-19T13:11:16.873Z,7.53
2023-03-19T13:13:46.784Z,7.78
2023-03-19T13:18:48.905Z,8.40
2023-03-19T13:21:23.544Z,7.63
2023-03-19T13:23:52.696Z,7.40
2023-03-19T13:26:18.845Z,6.90
2023-03-19T13:29:00.267Z,8.25
2023-03-19T13:31:28.082Z,7.93
2023-03-19T13:34:01.849Z,7.47
2023-03-19T13:36:32.863Z,7.60
2023-03-19T13:39:01.275Z,6.07
2023-03-19T13:41:52.475Z,7.43
2023-03-19T13:44:36.050Z,7.10
2023-03-19T13:47:03.960Z,7.22
2023-03-19T13:49:36.362Z,7.40
2023-03-19T13:52:20.590Z,7.25
2023-03-19T13:54:47.771Z,7.85
2023-03-19T13:57:37.991Z,7.97
2023-03-19T14:00:51.080Z,8.05
2023-03-19T14:03:22.845Z,8.75
2023-03-19T14:05:49.788Z,8.27
2023-03-19T14:08:20.484Z,9.13
2023-03-19T14:10:52.584Z,8.65
2023-03-19T14:13:24.585Z,8.13
2023-03-19T14:15:51.905Z,6.95
2023-03-19T14:18:20.144Z,6.95
2023-03-19T14:20:52.238Z,7.45
2023-03-19T14:23:36.101Z,8.50
2023-03-19T14:26:11.576Z,8.43
2023-03-19T14:28:43.494Z,8.57
2023-03-19T14:31:19.611Z,8.43
2023-03-19T14:33:48.026Z,9.18
2023-03-19T14:36:18.702Z,9.43
2023-03-19T14:38:50.772Z,8.73
2023-03-19T14:41:20.706Z,8.60
2023-03-19T14:44:06.810Z,8.52
2023-03-19T14:46:43.257Z,7.97
2023-03-19T14:49:55.790Z,8.88
2023-03-19T14:52:23.893Z,8.55
2023-03-19T14:54:52.378Z,8.40
2023-03-19T14:57:21.584Z,8.30
2023-03-19T14:59:46.372Z,8.85
2023-03-19T15:02:33.734Z,7.60
2023-03-19T15:05:00.523Z,8.50
2023-03-19T15:07:31.938Z,9.25
2023-03-19T15:09:58.595Z,9.20
2023-03-19T15:13:17.430Z,8.32
2023-03-19T15:15:59.702Z,8.85
2023-03-19T15:18:26.170Z,9.32
2023-03-19T15:20:55.568Z,10.05
2023-03-19T15:23:27.326Z,10.30
2023-03-19T15:25:58.276Z,9.18
2023-03-19T15:28:22.790Z,9.10
2023-03-19T15:31:05.754Z,9.07
2023-03-19T15:33:41.423Z,9.50
2023-03-19T15:36:12.101Z,9.35
2023-03-19T15:38:40.624Z,9.30
2023-03-19T15:41:06.842Z,8.40
2023-03-19T15:43:32.112Z,8.60
2023-03-19T15:45:58.800Z,8.88
2023-03-19T15:48:25.823Z,9.00
2023-03-19T15:50:53.112Z,8.55
2023-03-19T15:53:21.343Z,8.75
2023-03-19T15:55:46.113Z,9.38
2023-03-19T15:58:16.711Z,9.38
2023-03-19T16:00:42.637Z,9.35
2023-03-19T16:03:13.710Z,9.40
2023-03-19T16:05:38.206Z,9.48
2023-03-19T16:08:12.188Z,9.70
2023-03-19T16:10:42.486Z,10.45
2023-03-19T16:13:30.974Z,9.25
2023-03-19T16:16:03.091Z,8.70
2023-03-19T16:18:32.023Z,9.55
2023-03-19T16:21:08.312Z,9.17
2023-03-19T16:23:37.510Z,9.55
2023-03-19T16:26:16.881Z,8.93
2023-03-19T16:28:45.423Z,9.77
2023-03-19T16:31:24.865Z,10.10
2023-03-19T16:33:52.917Z,9.80
2023-03-19T16:36:17.387Z,10.68
2023-03-19T16:38:46.388Z,10.75
2023-03-19T16:41:19.362Z,11.15
2023-03-19T16:43:47.673Z,10.43
2023-03-19T16:46:16.570Z,11.40
2023-03-19T16:48:43.429Z,10.63
2023-03-19T16:51:16.779Z,10.55
2023-03-19T16:53:43.015Z,10.45
2023-03-19T16:56:08.527Z,10.88
2023-03-19T16:58:36.175Z,11.63
2023-03-19T17:01:01.873Z,12.10
2023-03-19T17:03:26.885Z,10.90
2023-03-19T17:05:51.458Z,11.98
2023-03-19T17:08:17.492Z,11.10
2023-03-19T17:10:44.864Z,11.82
2023-03-19T17:13:15.448Z,13.13
2023-03-19T17:15:44.214Z,12.25
2023-03-19T17:18:15.775Z,12.18
2023-03-19T17:20:47.913Z,12.70
2023-03-19T17:23:13.343Z,12.15
2023-03-19T17:25:39.838Z,12.80
2023-03-19T17:28:04.354Z,12.50
2023-03-19T17:30:29.019Z,14.13
2023-03-19T17:32:57.325Z,14.20
2023-03-19T17:35:23.312Z,14.18
2023-03-19T17:37:48.881Z,14.30
2023-03-19T17:40:19.608Z,13.93
2023-03-19T17:42:45.732Z,14.20
2023-03-19T17:45:13.957Z,13.73
2023-03-19T17:47:38.831Z,14.95
2023-03-19T17:50:03.509Z,16.15
2023-03-19T17:52:30.494Z,16.67
2023-03-19T17:54:55.437Z,15.75
2023-03-19T17:57:20.364Z,16.80
2023-03-19T17:59:46.340Z,16.45
2023-03-19T18:02:29.112Z,17.08
2023-03-19T18:04:54.131Z,15.30
2023-03-19T18:07:19.008Z,17.35
2023-03-19T18:09:44.367Z,16.67
2023-03-19T18:12:09.168Z,17.55
2023-03-19T18:14:33.709Z,17.35
2023-03-19T18:17:00.025Z,19.25
2023-03-19T18:19:29.777Z,21.30
2023-03-19T18:21:54.340Z,22.27
2023-03-19T18:24:19.180Z,22.42
2023-03-19T18:26:44.017Z,20.67
2023-03-19T18:29:09.151Z,21.73
2023-03-19T18:31:33.685Z,34.80
2023-03-19T18:34:03.713Z,35.92
2023-03-19T18:36:31.331Z,38.15
2023-03-19T18:38:59.108Z,33.00
2023-03-19T18:41:26.155Z,31.42
2023-03-19T18:44:03.024Z,29.60
2023-03-19T18:46:30.131Z,28.15
2023-03-19T18:48:56.942Z,27.48
2023-03-19T18:51:22.838Z,23.52
2023-03-19T18:53:49.201Z,19.65
2023-03-19T18:56:25.073Z,19.40
2023-03-19T18:58:50.119Z,20.50
2023-03-19T19:01:17.511Z,19.92
2023-03-19T19:03:42.021Z,21.10
2023-03-19T19:06:06.935Z,21.92
2023-03-19T19:08:33.063Z,25.60
2023-03-19T19:11:03.475Z,25.95
2023-03-19T19:13:53.314Z,25.02
2023-03-19T19:16:23.941Z,26.10
2023-03-19T19:18:49.134Z,24.73
2023-03-19T19:21:14.084Z,23.27
2023-03-19T19:23:40.003Z,22.20
2023-03-19T19:26:06.841Z,19.20
2023-03-19T19:28:34.142Z,21.00
2023-03-19T19:31:00.923Z,23.17
2023-03-19T19:33:27.785Z,22.63
2023-03-19T19:35:53.239Z,23.90
2023-03-19T19:38:17.690Z,23.83
2023-03-19T19:40:45.175Z,24.27
2023-03-19T19:43:18.222Z,23.27
2023-03-19T19:45:43.832Z,24.27
2023-03-19T19:48:16.250Z,23.63
2023-03-19T19:50:41.485Z,22.85
2023-03-19T19:53:06.624Z,22.50
2023-03-19T19:55:31.222Z,24.25
2023-03-19T19:57:58.676Z,24.85
2023-03-19T20:00:26.142Z,23.77
2023-03-19T20:02:53.397Z,23.83
2023-03-19T20:05:21.730Z,23.65
2023-03-19T20:07:46.312Z,23.25
2023-03-19T20:10:12.994Z,26.83
2023-03-19T20:12:37.756Z,25.65
2023-03-19T20:15:03.742Z,25.50
2023-03-19T20:17:28.382Z,24.38
2023-03-19T20:19:52.884Z,25.75
2023-03-19T20:22:17.553Z,25.65
2023-03-19T20:24:42.321Z,24.27
2023-03-19T20:27:19.300Z,24.23
2023-03-19T20:29:44.214Z,22.88
2023-03-19T20:32:27.043Z,23.65
2023-03-19T20:34:51.655Z,25.65
2023-03-19T20:37:16.661Z,25.45
2023-03-19T20:39:41.185Z,27.42
2023-03-19T20:42:06.331Z,28.52
2023-03-19T20:44:31.460Z,26.48
2023-03-19T20:46:55.955Z,28.80
2023-03-19T20:49:21.981Z,27.02
2023-03-19T20:51:46.643Z,30.83
2023-03-19T20:54:11.291Z,28.27
2023-03-19T20:56:39.301Z,29.17
2023-03-19T20:59:03.799Z,28.15
2023-03-19T21:01:28.358Z,28.00
2023-03-19T21:03:53.405Z,30.27
2023-03-19T21:06:21.870Z,31.27
2023-03-19T21:08:48.795Z,30.00
2023-03-19T21:11:17.860Z,35.40
2023-03-19T21:13:42.739Z,35.28
2023-03-19T21:16:08.256Z,31.35
2023-03-19T21:18:32.850Z,32.92
2023-03-19T21:20:59.794Z,27.85
2023-03-19T21:23:31.683Z,30.50
2023-03-19T21:25:56.538Z,29.40
2023-03-19T21:28:25.505Z,30.88
2023-03-19T21:30:50.072Z,34.25
2023-03-19T21:33:24.725Z,31.63
2023-03-19T21:35:49.452Z,32.10
2023-03-19T21:38:13.908Z,31.30
2023-03-19T21:40:40.000Z,33.00
2023-03-19T21:43:05.714Z,32.17
2023-03-19T21:45:33.953Z,31.85
2023-03-19T21:48:03.473Z,33.42
2023-03-19T21:50:27.933Z,32.13
2023-03-19T21:53:00.582Z,32.40
2023-03-19T21:55:25.852Z,31.75
2023-03-19T21:57:55.682Z,33.22
2023-03-19T22:00:21.588Z,30.83
2023-03-19T22:02:48.465Z,32.75
2023-03-19T22:05:18.345Z,31.88
2023-03-19T22:07:42.920Z,32.10
2023-03-19T22:10:08.054Z,33.60
2023-03-19T22:12:34.872Z,30.10
2023-03-19T22:15:01.279Z,32.15
2023-03-19T22:17:27.650Z,30.55
2023-03-19T22:19:52.104Z,31.65
2023-03-19T22:22:16.604Z,31.70
2023-03-19T22:24:42.092Z,31.92
2023-03-19T22:27:06.795Z,32.20
2023-03-19T22:29:34.385Z,34.17
2023-03-19T22:32:00.391Z,33.05
2023-03-19T22:34:27.702Z,31.75
2023-03-19T22:36:52.390Z,31.42
2023-03-19T22:39:16.936Z,29.95
2023-03-19T22:41:45.618Z,28.05
2023-03-19T22:44:18.559Z,27.83
2023-03-19T22:46:43.050Z,31.00
2023-03-19T22:49:14.528Z,25.20
2023-03-19T22:51:39.050Z,26.75
2023-03-19T22:54:03.518Z,27.98
2023-03-19T22:56:28.114Z,30.50
2023-03-19T22:58:53.110Z,29.48
2023-03-19T23:01:36.416Z,29.50
2023-03-19T23:04:20.435Z,30.80
2023-03-19T23:06:44.980Z,30.25
2023-03-19T23:09:14.046Z,32.33
2023-03-19T23:11:39.567Z,31.92
2023-03-19T23:14:04.000Z,29.90
2023-03-19T23:16:28.641Z,30.92
2023-03-19T23:21:23.535Z,32.45
2023-03-19T23:23:48.230Z,29.77
2023-03-19T23:26:26.660Z,31.38
2023-03-19T23:28:51.638Z,31.25
2023-03-19T23:31:16.300Z,32.25
2023-03-19T23:33:41.244Z,31.33
2023-03-19T23:36:06.351Z,31.65
2023-03-19T23:38:32.924Z,30.83
2023-03-19T23:40:57.457Z,31.05
2023-03-19T23:43:24.281Z,30.45
2023-03-19T23:45:50.094Z,28.70
2023-03-19T23:48:17.275Z,30.20
2023-03-19T23:50:41.772Z,31.02
2023-03-19T23:53:06.414Z,27.77
2023-03-19T23:55:33.648Z,25.00
2023-03-19T23:57:59.333Z,25.33
